Time;durP1;ratioP1;P1;durP2;ratioP2;P2;SDS_P1;SDS_P2;PMS_P1;PMS_P2;Temp;Humidity;BMP_temperature;BMP_pressure;BME280_temperature;BME280_humidity;BME280_pressure;Samples;Min_cycle;Max_cycle;Signal;HPM_P1;HPM_P2
2021/12/15 00:00:46;;;;;;;9.50;6.23;;;3.70;99.90;;;;;;10529550;28;20204;-79
2021/12/15 00:06:17;;;;;;;11.17;5.87;;;3.70;99.90;;;;;;10533774;28;20202;-79
2021/12/15 00:11:40;;;;;;;9.03;6.07;;;3.60;99.90;;;;;;10528840;28;20250;-78
2021/12/15 00:17:03;;;;;;;7.47;4.70;;;3.60;99.90;;;;;;10543239;28;20204;-79
2021/12/15 00:22:25;;;;;;;9.07;4.80;;;3.60;99.90;;;;;;10542828;28;20234;-78
2021/12/15 00:27:47;;;;;;;9.47;4.97;;;3.60;99.90;;;;;;10545579;28;20240;-78
2021/12/15 00:33:09;;;;;;;6.53;4.40;;;3.60;99.90;;;;;;10546303;28;20198;-79
2021/12/15 00:38:31;;;;;;;6.30;4.40;;;3.60;99.90;;;;;;10521692;28;20203;-78
2021/12/15 00:43:54;;;;;;;7.30;4.33;;;3.60;99.90;;;;;;10564677;28;20200;-78
2021/12/15 00:49:16;;;;;;;11.23;6.03;;;3.60;99.90;;;;;;10522424;28;20414;-79
2021/12/15 00:54:38;;;;;;;9.50;5.70;;;3.60;99.90;;;;;;10568088;28;20192;-81
2021/12/15 01:00:02;;;;;;;5.53;4.37;;;3.50;99.90;;;;;;10552877;28;20211;-82
2021/12/15 01:05:31;;;;;;;4.90;3.47;;;3.50;99.90;;;;;;10551941;28;20204;-81
2021/12/15 01:22:03;;;;;;;6.37;4.53;;;3.40;99.90;;;;;;10518980;28;20204;-81
2021/12/15 01:27:25;;;;;;;4.87;3.77;;;3.40;99.90;;;;;;10551861;28;20428;-80
2021/12/15 01:32:48;;;;;;;6.33;4.17;;;3.40;99.90;;;;;;10534653;28;20201;-80
2021/12/15 01:38:13;;;;;;;5.33;3.97;;;3.30;99.90;;;;;;10532446;28;20200;-80
2021/12/15 01:46:51;;;;;;;4.47;3.70;;;3.40;99.90;;;;;;11401076;22;20406;-78
2021/12/15 01:49:40;;;;;;;5.53;4.17;;;3.30;99.90;;;;;;10409427;28;20221;-76
2021/12/15 01:55:16;;;;;;;5.70;3.50;;;3.40;99.90;;;;;;10409581;28;20221;-77
2021/12/15 02:00:51;;;;;;;5.43;3.57;;;3.40;99.90;;;;;;10425907;28;20198;-76
2021/12/15 02:06:13;;;;;;;5.20;3.83;;;3.40;99.90;;;;;;10426102;28;20202;-75
2021/12/15 02:11:36;;;;;;;5.00;3.33;;;3.30;99.90;;;;;;10422284;28;20217;-77
2021/12/15 02:16:59;;;;;;;6.00;3.87;;;3.30;99.90;;;;;;10425598;28;20200;-75
2021/12/15 02:22:21;;;;;;;5.00;3.70;;;3.30;99.90;;;;;;10411611;28;20491;-75
2021/12/15 02:27:43;;;;;;;5.37;3.80;;;3.30;99.90;;;;;;10407832;28;20231;-75
2021/12/15 02:38:45;;;;;;;6.03;3.57;;;3.40;99.90;;;;;;10421352;28;20253;-75
2021/12/15 02:44:14;;;;;;;4.67;3.80;;;3.40;99.90;;;;;;10352675;28;20231;-76
2021/12/15 02:49:36;;;;;;;6.67;3.67;;;3.40;99.90;;;;;;10342393;28;20282;-76
2021/12/15 02:54:59;;;;;;;6.43;4.00;;;3.30;99.90;;;;;;10331765;28;20199;-75
2021/12/15 03:00:36;;;;;;;5.77;4.03;;;3.30;99.90;;;;;;10331805;28;20191;-76
2021/12/15 03:06:15;;;;;;;7.13;4.70;;;3.40;99.90;;;;;;10366578;28;20281;-75
2021/12/15 03:17:17;;;;;;;5.33;4.27;;;3.40;99.90;;;;;;10396887;28;20194;-76
2021/12/15 03:22:41;;;;;;;5.97;3.77;;;3.40;99.90;;;;;;10379178;28;20555;-76
2021/12/15 03:34:10;;;;;;;7.23;4.97;;;3.40;99.90;;;;;;10379508;28;20207;-75
2021/12/15 03:39:42;;;;;;;6.67;4.40;;;3.40;99.90;;;;;;10351731;28;20229;-74
2021/12/15 03:45:08;;;;;;;6.00;4.00;;;3.40;99.90;;;;;;10361020;28;20250;-75
2021/12/15 03:50:32;;;;;;;9.23;5.03;;;3.40;99.90;;;;;;10328594;28;20226;-75
2021/12/15 03:55:54;;;;;;;9.87;5.47;;;3.50;99.90;;;;;;10324350;28;20194;-75
2021/12/15 04:01:21;;;;;;;7.63;4.60;;;3.50;99.90;;;;;;10384726;28;20197;-75
2021/12/15 04:06:44;;;;;;;7.40;4.70;;;3.60;99.90;;;;;;10378238;28;20393;-76
2021/12/15 04:12:07;;;;;;;9.20;5.00;;;3.60;99.90;;;;;;10385057;28;20309;-75
2021/12/15 04:17:31;;;;;;;10.13;5.73;;;3.70;99.90;;;;;;10403559;28;20195;-76
2021/12/15 04:22:53;;;;;;;10.00;5.73;;;3.70;99.90;;;;;;10403406;28;20383;-76
2021/12/15 04:28:23;;;;;;;11.10;7.33;;;3.70;99.90;;;;;;10385525;28;20223;-75
2021/12/15 04:33:59;;;;;;;10.83;6.70;;;3.70;99.90;;;;;;10372053;28;20439;-75
2021/12/15 04:39:27;;;;;;;12.40;6.93;;;3.70;99.90;;;;;;10385248;28;20241;-75
2021/12/15 04:44:51;;;;;;;11.47;6.70;;;3.70;99.90;;;;;;10363691;28;20243;-75
2021/12/15 04:50:13;;;;;;;11.70;6.50;;;3.80;99.90;;;;;;10360695;28;20230;-76
2021/12/15 04:55:37;;;;;;;11.57;6.83;;;3.80;99.90;;;;;;10361994;28;20262;-77
2021/12/15 05:01:02;;;;;;;11.37;6.50;;;3.90;99.90;;;;;;10391866;28;20245;-75
2021/12/15 05:06:24;;;;;;;18.47;9.70;;;3.90;99.90;;;;;;10401358;28;20440;-75
2021/12/15 05:11:49;;;;;;;28.33;14.17;;;3.80;99.90;;;;;;10373231;28;20218;-78
2021/12/15 05:17:12;;;;;;;33.33;13.80;;;3.90;99.90;;;;;;10401239;28;20191;-75
2021/12/15 05:22:35;;;;;;;23.90;11.90;;;3.80;99.90;;;;;;10386000;28;20195;-77
2021/12/15 05:27:57;;;;;;;32.07;12.93;;;3.80;99.90;;;;;;10400640;28;20274;-78
2021/12/15 05:33:18;;;;;;;29.67;12.37;;;3.80;99.90;;;;;;10369661;28;20233;-77
2021/12/15 05:38:41;;;;;;;24.87;10.87;;;3.90;99.90;;;;;;10382934;28;20195;-77
2021/12/15 05:44:05;;;;;;;25.73;11.40;;;3.90;99.90;;;;;;10385438;28;20542;-76
2021/12/15 05:49:28;;;;;;;24.00;10.90;;;4.00;99.90;;;;;;10341905;28;20226;-75
2021/12/15 05:54:50;;;;;;;27.23;11.67;;;3.90;99.90;;;;;;10342029;28;20197;-77
2021/12/15 06:00:16;;;;;;;20.83;10.97;;;3.90;99.90;;;;;;10385307;28;20270;-75
2021/12/15 06:05:39;;;;;;;23.97;11.10;;;4.00;99.90;;;;;;10399335;28;20203;-77
2021/12/15 06:11:01;;;;;;;27.13;13.07;;;4.00;99.90;;;;;;10368381;28;20231;-76
2021/12/15 06:16:23;;;;;;;25.77;13.13;;;4.10;99.90;;;;;;10398739;28;20200;-77
2021/12/15 06:21:46;;;;;;;30.30;16.00;;;4.10;99.90;;;;;;10381227;28;20511;-75
2021/12/15 06:27:16;;;;;;;31.40;16.30;;;4.10;99.90;;;;;;10380663;28;20190;-75
2021/12/15 06:32:39;;;;;;;34.17;16.93;;;4.10;99.90;;;;;;10382818;28;20261;-77
2021/12/15 06:38:02;;;;;;;36.70;20.13;;;4.20;99.90;;;;;;10380484;28;20211;-80
2021/12/15 06:43:25;;;;;;;41.53;21.40;;;4.20;99.90;;;;;;10370474;28;20555;-79
2021/12/15 07:00:12;;;;;;;36.00;18.97;;;4.30;99.90;;;;;;10384146;28;20200;-79
2021/12/15 07:05:35;;;;;;;44.87;21.57;;;4.20;99.90;;;;;;10369661;28;20198;-81
2021/12/15 07:10:59;;;;;;;48.80;25.23;;;4.20;99.90;;;;;;10397355;28;20223;-78
2021/12/15 07:16:21;;;;;;;45.60;23.10;;;4.20;99.90;;;;;;10379132;28;20221;-77
2021/12/15 07:22:06;;;;;;;61.03;30.07;;;4.30;99.90;;;;;;10379425;28;20224;-78
2021/12/15 07:27:28;;;;;;;50.00;27.03;;;4.30;99.90;;;;;;10396660;28;20193;-81
2021/12/15 07:32:51;;;;;;;58.80;31.03;;;4.30;99.90;;;;;;10396403;28;20267;-77
2021/12/15 07:38:14;;;;;;;50.30;26.40;;;4.30;99.90;;;;;;10396247;28;20204;-79
2021/12/15 07:43:36;;;;;;;50.30;24.57;;;4.30;99.90;;;;;;10369619;28;20525;-78
2021/12/15 07:48:58;;;;;;;56.73;26.73;;;4.40;99.90;;;;;;10355145;28;20253;-79
2021/12/15 07:54:20;;;;;;;50.23;23.00;;;4.40;99.90;;;;;;10337931;28;20270;-79
2021/12/15 07:59:43;;;;;;;44.63;21.23;;;4.40;99.90;;;;;;10380304;28;20200;-79
2021/12/15 08:05:07;;;;;;;47.63;22.70;;;4.40;99.90;;;;;;10381248;28;20206;-79
2021/12/15 08:10:30;;;;;;;48.60;22.90;;;4.40;99.90;;;;;;10380807;28;20226;-78
2021/12/15 08:15:52;;;;;;;47.27;22.83;;;4.40;99.90;;;;;;10380511;28;20258;-78
2021/12/15 08:21:15;;;;;;;53.93;24.77;;;4.40;99.90;;;;;;10340536;28;20521;-80
2021/12/15 08:26:37;;;;;;;48.77;23.57;;;4.50;99.90;;;;;;10407735;28;20199;-79
2021/12/15 08:32:00;;;;;;;50.40;25.27;;;4.50;99.90;;;;;;10414664;28;20533;-80
2021/12/15 08:37:22;;;;;;;42.23;22.67;;;4.60;99.90;;;;;;10396406;28;20219;-80
2021/12/15 08:42:46;;;;;;;46.07;23.90;;;4.60;99.90;;;;;;10380271;28;20545;-82
2021/12/15 08:48:09;;;;;;;45.00;22.23;;;4.70;99.90;;;;;;10373989;28;20255;-80
2021/12/15 08:53:33;;;;;;;46.93;22.63;;;4.70;99.90;;;;;;10343164;28;20207;-79
2021/12/15 08:58:55;;;;;;;45.13;23.00;;;4.80;99.90;;;;;;10363441;28;20250;-80
2021/12/15 09:04:18;;;;;;;41.00;20.63;;;4.80;99.90;;;;;;10381424;28;20226;-80
2021/12/15 09:09:41;;;;;;;46.90;24.07;;;4.80;99.90;;;;;;10366830;28;20236;-79
2021/12/15 09:15:05;;;;;;;45.80;23.50;;;4.80;99.90;;;;;;10379051;28;20223;-78
2021/12/15 09:20:31;;;;;;;42.23;19.80;;;5.00;99.90;;;;;;10359721;28;20475;-80
2021/12/15 09:25:53;;;;;;;41.00;20.67;;;5.10;99.90;;;;;;10351647;28;20251;-80
2021/12/15 09:31:16;;;;;;;40.07;21.83;;;5.10;99.90;;;;;;10378723;28;20240;-83
2021/12/15 09:36:39;;;;;;;36.23;19.80;;;;;;;;;;10350715;28;20207;-79
2021/12/15 09:42:03;;;;;;;41.40;20.33;;;5.30;99.90;;;;;;10363759;28;20236;-80
2021/12/15 09:47:43;;;;;;;34.83;18.97;;;5.30;99.90;;;;;;10342715;28;20204;-79
2021/12/15 10:04:44;;;;;;;31.63;16.53;;;5.50;99.90;;;;;;10363089;28;20266;-81
2021/12/15 10:21:35;;;;;;;50.50;21.77;;;5.60;99.90;;;;;;10370072;28;20745;-82
2021/12/15 10:26:59;;;;;;;40.67;20.07;;;;;;;;;;10339953;28;20203;-79
2021/12/15 10:32:29;;;;;;;44.70;20.37;;;5.50;99.90;;;;;;10365931;28;20290;-83
2021/12/15 10:38:19;;;;;;;32.77;17.40;;;5.50;99.90;;;;;;10349916;28;20214;-86
2021/12/15 10:44:21;;;;;;;37.57;18.03;;;5.50;99.90;;;;;;10362126;28;20488;-84
2021/12/15 10:49:43;;;;;;;34.00;16.43;;;5.50;99.90;;;;;;10163695;29;20247;-86
2021/12/15 10:55:06;;;;;;;36.90;19.43;;;5.50;99.90;;;;;;10173421;29;20215;-79
2021/12/15 11:00:35;;;;;;;27.20;15.47;;;5.50;99.90;;;;;;10158599;29;20216;-79
2021/12/15 11:05:57;;;;;;;25.93;14.03;;;5.50;99.90;;;;;;10189062;29;20204;-78
2021/12/15 11:11:28;;;;;;;26.77;15.57;;;5.60;99.90;;;;;;10175202;29;20250;-87
2021/12/15 11:17:12;;;;;;;29.87;16.47;;;5.60;99.90;;;;;;10151355;29;20561;-84
2021/12/15 11:22:49;;;;;;;31.50;16.77;;;5.60;99.90;;;;;;10253070;28;20302;-79
2021/12/15 11:28:14;;;;;;;37.33;16.03;;;5.70;99.90;;;;;;10344417;28;20547;-80
2021/12/15 11:33:41;;;;;;;34.20;17.03;;;;;;;;;;10320728;28;20217;-79
2021/12/15 11:39:20;;;;;;;36.03;16.83;;;6.20;99.90;;;;;;10343382;28;20193;-83
2021/12/15 11:44:42;;;;;;;33.47;16.07;;;6.30;99.90;;;;;;10347740;28;20469;-81
2021/12/15 11:50:06;;;;;;;28.90;17.47;;;;;;;;;;10374096;28;20244;-90
2021/12/15 11:55:33;;;;;;;32.10;17.47;;;6.50;99.90;;;;;;10359902;28;20554;-84
2021/12/15 12:00:56;;;;;;;30.57;17.23;;;6.40;99.90;;;;;;10373289;28;20545;-83
2021/12/15 12:06:25;;;;;;;29.53;16.93;;;6.20;99.90;;;;;;10357692;28;20211;-79
2021/12/15 12:11:54;;;;;;;33.17;19.60;;;6.20;99.90;;;;;;10345910;28;20556;-80
2021/12/15 12:17:29;;;;;;;44.03;23.83;;;6.20;99.90;;;;;;10344232;28;20200;-81
2021/12/15 12:23:04;;;;;;;41.00;22.70;;;6.10;99.90;;;;;;10353296;28;20218;-80
2021/12/15 12:28:30;;;;;;;37.43;20.47;;;6.10;99.90;;;;;;10319029;28;20214;-79
2021/12/15 12:33:52;;;;;;;31.63;19.37;;;6.10;99.90;;;;;;10313082;28;20308;-79
2021/12/15 12:39:14;;;;;;;33.23;19.63;;;6.10;99.90;;;;;;10339424;28;20271;-80
2021/12/15 12:44:43;;;;;;;35.97;21.77;;;6.10;99.90;;;;;;10362254;28;20240;-79
2021/12/15 13:01:40;;;;;;;32.60;20.13;;;6.10;99.90;;;;;;10346474;28;20283;-79
2021/12/15 13:07:03;;;;;;;36.63;20.87;;;6.10;99.90;;;;;;10366393;28;20216;-79
2021/12/15 13:12:30;;;;;;;36.57;20.30;;;6.10;99.90;;;;;;10371352;28;20232;-79
2021/12/15 13:18:03;;;;;;;33.63;19.93;;;6.10;99.90;;;;;;10361522;28;20196;-81
2021/12/15 13:23:59;;;;;;;36.23;21.93;;;6.10;99.90;;;;;;10370232;28;20241;-83
2021/12/15 13:29:23;;;;;;;36.43;21.03;;;6.20;99.90;;;;;;10351021;28;20267;-79
2021/12/15 13:34:49;;;;;;;34.70;21.30;;;6.20;99.90;;;;;;10341891;28;20803;-86
2021/12/15 13:40:13;;;;;;;37.37;22.13;;;6.30;99.90;;;;;;10365042;28;20272;-81
2021/12/15 13:45:36;;;;;;;38.67;22.97;;;6.30;99.90;;;;;;10379797;28;20296;-83
2021/12/15 13:50:58;;;;;;;35.10;22.47;;;6.30;99.90;;;;;;10380046;28;20290;-84
2021/12/15 13:56:47;;;;;;;38.77;23.03;;;6.40;99.90;;;;;;10357199;28;20477;-82
2021/12/15 14:02:30;;;;;;;34.97;20.53;;;6.40;99.90;;;;;;10362607;28;20259;-80
2021/12/15 14:08:04;;;;;;;35.43;19.73;;;6.50;99.90;;;;;;10363222;28;20200;-84
2021/12/15 14:13:43;;;;;;;33.40;20.20;;;6.50;99.90;;;;;;10364346;28;20232;-80
2021/12/15 14:19:14;;;;;;;32.20;19.33;;;6.50;99.90;;;;;;10347205;28;20202;-84
2021/12/15 14:24:38;;;;;;;30.60;19.57;;;6.60;99.90;;;;;;10341639;28;20204;-85
2021/12/15 14:30:00;;;;;;;30.87;19.07;;;6.60;99.90;;;;;;10357785;28;20243;-86
2021/12/15 14:35:26;;;;;;;31.53;18.63;;;6.70;99.90;;;;;;10345543;28;20213;-83
2021/12/15 14:40:48;;;;;;;32.80;19.53;;;6.60;99.90;;;;;;10359608;28;20205;-82
2021/12/15 14:46:26;;;;;;;32.03;19.83;;;6.60;99.90;;;;;;10376805;28;20221;-81
2021/12/15 14:51:51;;;;;;;33.10;18.47;;;6.60;99.90;;;;;;10359013;28;20527;-82
2021/12/15 14:57:19;;;;;;;31.20;18.83;;;6.60;99.90;;;;;;10363674;28;20254;-79
2021/12/15 15:02:44;;;;;;;30.90;19.87;;;6.70;99.90;;;;;;10362129;28;20229;-84
2021/12/15 15:08:24;;;;;;;29.10;18.87;;;6.80;99.90;;;;;;10346020;28;20220;-81
2021/12/15 15:13:51;;;;;;;30.53;19.23;;;6.80;99.90;;;;;;10367292;28;20220;-79
2021/12/15 15:19:17;;;;;;;28.23;18.33;;;6.90;99.90;;;;;;10387435;28;20485;-82
2021/12/15 15:24:39;;;;;;;30.23;19.87;;;6.80;99.90;;;;;;10357849;28;20285;-83
2021/12/15 15:30:09;;;;;;;29.73;19.20;;;7.00;99.90;;;;;;10359127;28;20300;-78
2021/12/15 15:35:35;;;;;;;27.27;18.80;;;7.00;99.90;;;;;;10373113;28;20300;-80
2021/12/15 15:41:08;;;;;;;32.57;18.60;;;7.00;99.90;;;;;;10358404;28;20208;-80
2021/12/15 15:46:35;;;;;;;38.23;22.87;;;7.10;99.90;;;;;;10373229;28;20205;-81
2021/12/15 15:51:57;;;;;;;36.30;20.83;;;7.20;99.90;;;;;;10359762;28;20581;-81
2021/12/15 15:57:22;;;;;;;32.63;20.33;;;;;;;;;;10363529;28;20255;-81
2021/12/15 16:02:44;;;;;;;37.40;24.07;;;7.10;99.90;;;;;;10358144;28;20224;-83
2021/12/15 16:08:07;;;;;;;36.30;22.50;;;;;;;;;;10399655;28;20248;-77
2021/12/15 16:13:36;;;;;;;32.97;20.50;;;;;;;;;;10392572;28;20568;-78
2021/12/15 16:19:04;;;;;;;33.10;21.43;;;;;;;;;;10374998;28;20193;-84
2021/12/15 16:24:27;;;;;;;34.40;20.03;;;;;;;;;;10370148;28;20208;-81
2021/12/15 16:29:55;;;;;;;36.73;21.20;;;;;;;;;;10370020;28;20279;-83
2021/12/15 16:35:23;;;;;;;44.67;24.40;;;;;;;;;;10365801;28;20574;-81
2021/12/15 16:41:14;;;;;;;35.60;21.97;;;7.00;99.90;;;;;;10370373;28;20208;-83
2021/12/15 16:46:38;;;;;;;35.40;21.27;;;;;;;;;;10386067;28;20221;-82
2021/12/15 16:52:03;;;;;;;38.37;23.40;;;;;;;;;;10368648;28;20231;-82
2021/12/15 16:57:26;;;;;;;39.83;22.43;;;;;;;;;;10385500;28;20232;-82
2021/12/15 17:02:51;;;;;;;37.80;22.47;;;;;;;;;;10368484;28;20200;-81
2021/12/15 17:08:21;;;;;;;35.23;20.83;;;7.10;99.90;;;;;;10355279;28;20204;-82
2021/12/15 17:13:44;;;;;;;36.57;22.53;;;7.10;99.90;;;;;;10373585;28;20229;-81
2021/12/15 17:19:18;;;;;;;37.77;22.10;;;7.10;99.90;;;;;;10380184;28;20201;-80
2021/12/15 17:25:13;;;;;;;40.40;22.40;;;7.10;99.90;;;;;;10385878;28;20533;-81
2021/12/15 17:30:47;;;;;;;37.80;22.67;;;7.10;99.90;;;;;;10397198;28;20232;-80
2021/12/15 17:36:33;;;;;;;39.57;22.47;;;7.10;99.90;;;;;;10370575;28;20197;-81
2021/12/15 17:42:14;;;;;;;38.87;22.33;;;7.10;99.90;;;;;;10367096;28;20240;-81
2021/12/15 17:47:44;;;;;;;41.53;23.17;;;7.10;99.90;;;;;;10367177;28;20254;-81
2021/12/15 17:53:10;;;;;;;41.30;21.73;;;7.10;99.90;;;;;;10380147;28;20307;-82
2021/12/15 17:58:32;;;;;;;38.17;22.63;;;7.10;99.90;;;;;;10383139;28;20190;-79
2021/12/15 18:03:54;;;;;;;42.57;23.07;;;7.20;99.90;;;;;;10382494;28;20229;-80
2021/12/15 18:09:17;;;;;;;40.07;21.87;;;7.10;99.90;;;;;;10352420;28;20222;-81
2021/12/15 18:14:40;;;;;;;36.50;22.03;;;7.20;99.90;;;;;;10352367;28;20202;-82
2021/12/15 18:20:05;;;;;;;33.83;20.33;;;7.10;99.90;;;;;;10353433;28;20216;-80
2021/12/15 18:25:28;;;;;;;35.70;20.13;;;7.10;99.90;;;;;;10392922;28;20202;-81
2021/12/15 18:30:53;;;;;;;35.77;19.27;;;;;;;;;;10380496;28;20248;-81
2021/12/15 18:36:19;;;;;;;30.80;18.50;;;;;;;;;;10368369;28;20482;-80
2021/12/15 18:41:45;;;;;;;32.27;18.67;;;;;;;;;;10378202;28;20345;-80
2021/12/15 18:47:08;;;;;;;31.07;18.67;;;;;;;;;;10381094;28;20202;-81
2021/12/15 18:52:31;;;;;;;29.50;17.63;;;;;;;;;;10380542;28;20539;-79
2021/12/15 18:57:54;;;;;;;35.27;18.97;;;;;;;;;;10380744;28;20243;-81
2021/12/15 19:03:17;;;;;;;33.60;17.70;;;;;;;;;;10366529;28;20196;-80
2021/12/15 19:08:40;;;;;;;32.23;17.23;;;7.20;99.90;;;;;;10350147;28;20272;-81
2021/12/15 19:14:06;;;;;;;29.90;17.73;;;7.30;99.90;;;;;;10350193;28;20285;-82
2021/12/15 19:19:44;;;;;;;28.47;16.70;;;7.20;99.90;;;;;;10350352;28;20203;-80
2021/12/15 19:25:08;;;;;;;30.13;16.40;;;7.20;99.90;;;;;;10354906;28;20403;-81
2021/12/15 19:30:37;;;;;;;30.83;16.97;;;7.20;99.90;;;;;;10362750;28;20538;-81
2021/12/15 19:36:00;;;;;;;25.20;14.33;;;7.20;99.90;;;;;;10366328;28;20193;-81
2021/12/15 19:41:23;;;;;;;30.93;15.93;;;7.20;99.90;;;;;;10363076;28;20214;-80
2021/12/15 19:46:51;;;;;;;29.07;16.30;;;7.20;99.90;;;;;;10366102;28;20415;-80
2021/12/15 19:52:14;;;;;;;29.33;16.77;;;7.20;99.90;;;;;;10362051;28;20300;-80
2021/12/15 19:57:36;;;;;;;33.37;17.80;;;7.20;99.90;;;;;;10362517;28;20463;-81
2021/12/15 20:02:58;;;;;;;31.57;17.77;;;7.20;99.90;;;;;;10361492;28;20211;-80
2021/12/15 20:08:41;;;;;;;31.00;16.90;;;7.30;99.90;;;;;;10392990;28;20256;-80
2021/12/15 20:14:23;;;;;;;26.23;16.53;;;7.20;99.90;;;;;;10381016;28;20271;-80
2021/12/15 20:19:46;;;;;;;28.07;16.07;;;7.20;99.90;;;;;;10348167;28;20302;-80
2021/12/15 20:25:27;;;;;;;31.23;16.23;;;7.30;99.90;;;;;;10340319;28;20240;-81
2021/12/15 20:31:13;;;;;;;22.50;14.40;;;7.30;99.90;;;;;;10351292;28;20237;-80
2021/12/15 20:36:54;;;;;;;25.00;15.17;;;7.30;99.90;;;;;;10339999;28;20241;-81
2021/12/15 20:42:16;;;;;;;25.87;15.20;;;7.20;99.90;;;;;;10334357;28;20539;-81
2021/12/15 20:47:42;;;;;;;22.97;14.40;;;7.30;99.90;;;;;;10359090;28;20201;-82
2021/12/15 20:53:08;;;;;;;27.13;14.57;;;7.20;99.90;;;;;;10326280;28;20551;-81
2021/12/15 20:58:31;;;;;;;23.87;14.23;;;7.20;99.90;;;;;;10360214;28;20527;-81
2021/12/15 21:03:53;;;;;;;21.17;12.70;;;7.10;99.90;;;;;;10342122;28;20209;-82
2021/12/15 21:09:22;;;;;;;26.13;14.27;;;7.00;99.90;;;;;;10315526;28;20339;-81
2021/12/15 21:15:06;;;;;;;19.67;13.33;;;7.00;99.90;;;;;;10357324;28;20213;-80
2021/12/15 21:20:40;;;;;;;20.40;12.80;;;7.00;99.90;;;;;;10384654;28;20274;-81
2021/12/15 21:26:17;;;;;;;18.27;12.27;;;7.20;99.90;;;;;;10317290;28;20587;-81
2021/12/15 21:31:41;;;;;;;20.77;11.43;;;7.20;99.90;;;;;;10343546;28;20274;-81
2021/12/15 21:37:05;;;;;;;17.73;12.30;;;7.10;99.90;;;;;;10330021;28;20201;-80
2021/12/15 21:42:47;;;;;;;23.27;10.77;;;7.20;99.90;;;;;;10345288;28;20489;-81
2021/12/15 21:48:30;;;;;;;17.60;10.23;;;7.10;99.90;;;;;;10360724;28;20555;-80
2021/12/15 21:53:57;;;;;;;17.27;10.87;;;7.10;99.90;;;;;;10370878;28;20233;-79
2021/12/15 21:59:39;;;;;;;17.87;10.57;;;7.20;99.90;;;;;;10385342;28;20504;-81
2021/12/15 22:05:04;;;;;;;17.67;11.33;;;7.20;99.90;;;;;;10366454;28;20209;-81
2021/12/15 22:10:30;;;;;;;19.43;11.70;;;7.30;99.90;;;;;;10379868;28;20251;-81
2021/12/15 22:15:55;;;;;;;19.37;12.10;;;7.20;99.90;;;;;;10382134;28;20421;-82
2021/12/15 22:21:41;;;;;;;19.47;12.47;;;7.20;99.90;;;;;;10356973;28;20207;-80
2021/12/15 22:27:23;;;;;;;22.23;12.70;;;7.30;99.90;;;;;;10373346;28;20277;-80
2021/12/15 22:32:53;;;;;;;21.57;13.43;;;7.20;99.90;;;;;;10365270;28;20400;-81
2021/12/15 22:38:20;;;;;;;27.43;15.70;;;7.20;99.90;;;;;;10365167;28;20496;-81
2021/12/15 22:44:01;;;;;;;27.23;16.70;;;7.30;99.90;;;;;;10372218;28;20244;-81
2021/12/15 22:49:32;;;;;;;26.33;16.53;;;7.30;99.90;;;;;;10353435;28;20259;-81
2021/12/15 22:55:15;;;;;;;28.90;16.17;;;7.20;99.90;;;;;;10383146;28;20247;-80
2021/12/15 23:00:55;;;;;;;21.70;14.07;;;7.20;99.90;;;;;;10380742;28;20260;-78
2021/12/15 23:06:29;;;;;;;23.23;13.13;;;7.20;99.90;;;;;;10364859;28;20273;-80
2021/12/15 23:12:07;;;;;;;23.60;12.77;;;7.20;99.90;;;;;;10350115;28;20228;-80
2021/12/15 23:17:39;;;;;;;19.97;13.70;;;7.30;99.90;;;;;;10376676;28;20199;-79
2021/12/15 23:23:28;;;;;;;19.80;12.80;;;7.30;99.90;;;;;;10368678;28;20280;-80
2021/12/15 23:29:00;;;;;;;20.40;12.80;;;7.30;99.90;;;;;;10364081;28;20208;-81
2021/12/15 23:34:47;;;;;;;18.70;12.30;;;7.30;99.90;;;;;;10371357;28;20239;-80
